createdAt,value
2022-11-24T00:00:06.763Z,100.00
2022-11-24T00:03:10.686Z,100.00
2022-11-24T00:06:15.956Z,100.00
2022-11-24T00:09:18.922Z,100.00
2022-11-24T00:12:23.112Z,100.00
2022-11-24T00:15:26.190Z,100.00
2022-11-24T00:18:29.707Z,100.00
2022-11-24T00:21:32.707Z,100.00
2022-11-24T00:24:36.013Z,100.00
2022-11-24T00:27:39.101Z,100.00
2022-11-24T00:30:42.318Z,100.00
2022-11-24T00:33:49.178Z,100.00
2022-11-24T00:36:52.540Z,100.00
2022-11-24T00:39:55.460Z,100.00
2022-11-24T00:42:58.744Z,100.00
2022-11-24T00:46:01.974Z,100.00
2022-11-24T00:49:05.689Z,100.00
2022-11-24T00:52:09.762Z,100.00
2022-11-24T00:55:12.982Z,100.00
2022-11-24T00:58:16.655Z,100.00
2022-11-24T01:01:26.444Z,100.00
2022-11-24T01:04:29.535Z,100.00
2022-11-24T01:07:33.621Z,100.00
2022-11-24T01:10:37.258Z,100.00
2022-11-24T01:13:41.426Z,100.00
2022-11-24T01:16:44.365Z,100.00
2022-11-24T01:19:49.318Z,100.00
2022-11-24T01:22:52.522Z,100.00
2022-11-24T01:25:55.694Z,100.00
2022-11-24T01:28:59.007Z,100.00
2022-11-24T01:32:02.288Z,100.00
2022-11-24T01:35:05.948Z,100.00
2022-11-24T01:38:09.446Z,100.00
2022-11-24T01:41:17.421Z,100.00
2022-11-24T01:44:29.090Z,100.00
2022-11-24T01:47:38.685Z,100.00
2022-11-24T01:50:42.983Z,100.00
2022-11-24T01:53:50.249Z,100.00
2022-11-24T01:56:55.201Z,100.00
2022-11-24T02:00:13.194Z,100.00
2022-11-24T02:03:18.747Z,100.00
2022-11-24T02:06:30.159Z,100.00
2022-11-24T02:09:39.615Z,100.00
2022-11-24T02:12:45.893Z,100.00
2022-11-24T02:15:49.025Z,100.00
2022-11-24T02:18:52.761Z,100.00
2022-11-24T02:21:55.732Z,100.00
2022-11-24T02:25:07.282Z,100.00
2022-11-24T02:28:13.789Z,100.00
2022-11-24T02:31:17.174Z,100.00
2022-11-24T02:34:20.729Z,100.00
2022-11-24T02:37:23.923Z,100.00
2022-11-24T02:40:28.423Z,100.00
2022-11-24T02:43:37.599Z,100.00
2022-11-24T02:46:40.607Z,100.00
2022-11-24T02:49:43.882Z,100.00
2022-11-24T02:52:46.736Z,100.00
2022-11-24T02:55:50.697Z,100.00
2022-11-24T02:58:53.634Z,100.00
2022-11-24T03:01:56.996Z,100.00
2022-11-24T03:05:00.546Z,100.00
2022-11-24T03:08:04.413Z,100.00
2022-11-24T03:11:07.384Z,100.00
2022-11-24T03:14:10.806Z,100.00
2022-11-24T03:17:13.717Z,100.00
2022-11-24T03:20:17.569Z,100.00
2022-11-24T03:23:20.515Z,100.00
2022-11-24T03:26:25.216Z,100.00
2022-11-24T03:29:28.344Z,100.00
2022-11-24T03:32:31.681Z,100.00
2022-11-24T03:35:34.627Z,100.00
2022-11-24T03:38:38.745Z,100.00
2022-11-24T03:41:41.678Z,100.00
2022-11-24T03:44:45.364Z,100.00
2022-11-24T03:47:51.872Z,100.00
2022-11-24T03:50:56.535Z,100.00
2022-11-24T03:53:59.472Z,100.00
2022-11-24T03:57:03.022Z,100.00
2022-11-24T04:00:07.025Z,100.00
2022-11-24T04:03:11.314Z,100.00
2022-11-24T04:06:14.368Z,100.00
2022-11-24T04:09:17.630Z,100.00
2022-11-24T04:12:38.979Z,100.00
2022-11-24T04:15:43.323Z,100.00
2022-11-24T04:18:46.216Z,100.00
2022-11-24T04:21:49.577Z,100.00
2022-11-24T04:24:52.508Z,100.00
2022-11-24T04:27:56.527Z,100.00
2022-11-24T04:31:03.607Z,100.00
2022-11-24T04:34:07.289Z,100.00
2022-11-24T04:37:10.502Z,100.00
2022-11-24T04:40:14.176Z,100.00
2022-11-24T04:43:18.927Z,100.00
2022-11-24T04:46:22.315Z,100.00
2022-11-24T04:49:25.379Z,100.00
2022-11-24T04:52:30.334Z,100.00
2022-11-24T04:55:33.193Z,100.00
2022-11-24T04:58:37.864Z,100.00
2022-11-24T05:01:43.690Z,100.00
2022-11-24T05:04:48.252Z,100.00
2022-11-24T05:07:52.911Z,100.00
2022-11-24T05:10:56.451Z,100.00
2022-11-24T05:13:59.655Z,100.00
2022-11-24T05:17:03.002Z,100.00
2022-11-24T05:20:07.074Z,100.00
2022-11-24T05:23:11.096Z,100.00
2022-11-24T05:26:13.992Z,100.00
2022-11-24T05:29:17.191Z,100.00
2022-11-24T05:32:20.633Z,100.00
2022-11-24T05:35:24.189Z,100.00
2022-11-24T05:38:27.073Z,100.00
2022-11-24T05:41:30.160Z,100.00
2022-11-24T05:44:33.163Z,100.00
2022-11-24T05:47:37.897Z,100.00
2022-11-24T05:50:40.851Z,100.00
2022-11-24T05:53:44.393Z,100.00
2022-11-24T05:56:47.904Z,100.00
2022-11-24T05:59:51.246Z,100.00
2022-11-24T06:02:54.277Z,100.00
2022-11-24T06:05:59.236Z,100.00
2022-11-24T06:09:02.724Z,100.00
2022-11-24T06:12:11.155Z,100.00
2022-11-24T06:15:15.347Z,100.00
2022-11-24T06:18:18.526Z,100.00
2022-11-24T06:21:21.207Z,100.00
2022-11-24T06:24:24.414Z,100.00
2022-11-24T06:27:27.852Z,100.00
2022-11-24T06:30:31.412Z,100.00
2022-11-24T06:33:35.645Z,100.00
2022-11-24T06:36:39.546Z,100.00
2022-11-24T06:39:42.864Z,100.00
2022-11-24T06:42:51.469Z,100.00
2022-11-24T06:45:54.411Z,100.00
2022-11-24T06:49:00.121Z,100.00
2022-11-24T06:52:03.298Z,100.00
2022-11-24T06:55:07.126Z,100.00
2022-11-24T06:58:10.006Z,100.00
2022-11-24T07:01:32.406Z,100.00
2022-11-24T07:04:35.465Z,100.00
2022-11-24T07:07:39.631Z,100.00
2022-11-24T07:10:42.624Z,99.84
2022-11-24T07:13:46.645Z,99.56
2022-11-24T07:16:49.796Z,98.17
2022-11-24T07:19:53.079Z,96.65
2022-11-24T07:22:59.407Z,95.78
2022-11-24T07:26:06.949Z,95.20
2022-11-24T07:29:10.270Z,95.21
2022-11-24T07:32:13.500Z,94.65
2022-11-24T07:35:16.486Z,93.69
2022-11-24T07:38:20.750Z,93.95
2022-11-24T07:41:23.706Z,94.35
2022-11-24T07:44:28.114Z,94.04
2022-11-24T07:47:30.983Z,94.55
2022-11-24T07:50:34.113Z,92.69
2022-11-24T07:53:37.731Z,92.51
2022-11-24T07:56:40.649Z,92.62
2022-11-24T07:59:43.240Z,92.78
2022-11-24T08:02:46.183Z,93.00
2022-11-24T08:06:16.440Z,93.09
2022-11-24T08:09:17.925Z,93.85
2022-11-24T08:12:22.634Z,91.69
2022-11-24T08:15:25.451Z,91.89
2022-11-24T08:18:29.659Z,92.74
2022-11-24T08:21:32.719Z,93.60
2022-11-24T08:24:36.436Z,93.16
2022-11-24T08:27:40.320Z,92.60
2022-11-24T08:30:43.672Z,92.27
2022-11-24T08:33:47.077Z,92.46
2022-11-24T08:36:50.989Z,91.94
2022-11-24T08:39:53.692Z,90.56
2022-11-24T08:43:00.815Z,91.47
2022-11-24T08:46:14.517Z,91.79
2022-11-24T08:49:19.055Z,91.28
2022-11-24T08:52:22.031Z,90.90
2022-11-24T08:55:25.297Z,90.22
2022-11-24T08:58:45.013Z,90.34
2022-11-24T09:01:49.486Z,90.72
2022-11-24T09:04:52.607Z,89.97
2022-11-24T09:07:56.276Z,90.57
2022-11-24T09:11:00.729Z,90.08
2022-11-24T09:14:04.902Z,90.03
2022-11-24T09:17:08.025Z,88.85
2022-11-24T09:20:11.444Z,89.80
2022-11-24T09:23:14.821Z,88.78
2022-11-24T09:26:22.018Z,87.94
2022-11-24T09:29:25.444Z,89.49
2022-11-24T09:32:30.672Z,88.52
2022-11-24T09:35:37.261Z,89.60
2022-11-24T09:38:41.037Z,89.65
2022-11-24T09:42:11.888Z,89.28
2022-11-24T09:46:06.202Z,87.72
2022-11-24T09:49:22.076Z,88.54
2022-11-24T09:52:45.523Z,88.43
2022-11-24T09:55:58.226Z,89.37
2022-11-24T09:59:03.075Z,87.78
2022-11-24T10:02:11.956Z,87.68
2022-11-24T10:05:15.600Z,87.56
2022-11-24T10:08:27.451Z,87.16
2022-11-24T10:12:03.434Z,87.33
2022-11-24T10:18:52.542Z,86.76
2022-11-24T10:22:30.462Z,87.03
2022-11-24T10:25:42.847Z,84.91
2022-11-24T10:28:52.651Z,85.72
2022-11-24T10:31:56.977Z,83.85
2022-11-24T10:35:13.708Z,84.08
2022-11-24T10:38:31.481Z,84.17
2022-11-24T10:41:45.865Z,84.44
2022-11-24T10:45:02.186Z,83.70
2022-11-24T10:48:09.040Z,85.35
2022-11-24T10:51:30.488Z,84.31
2022-11-24T10:54:36.082Z,84.78
2022-11-24T10:57:40.858Z,82.07
2022-11-24T11:00:43.688Z,82.10
2022-11-24T11:03:51.921Z,81.46
2022-11-24T11:07:18.701Z,81.79
2022-11-24T11:10:25.440Z,81.62
2022-11-24T11:13:30.414Z,81.08
2022-11-24T11:16:42.696Z,80.77
2022-11-24T11:19:49.791Z,80.31
2022-11-24T11:22:53.963Z,80.88
2022-11-24T11:26:24.872Z,77.54
2022-11-24T11:36:21.435Z,73.16
2022-11-24T11:39:33.100Z,70.48
2022-11-24T11:43:02.051Z,72.27
2022-11-24T11:46:12.537Z,71.40
2022-11-24T11:49:15.925Z,71.87
2022-11-24T11:52:28.455Z,71.77
2022-11-24T11:55:45.220Z,71.47
2022-11-24T11:59:27.664Z,72.47
2022-11-24T12:02:53.038Z,70.84
2022-11-24T12:05:59.638Z,68.50
2022-11-24T12:09:24.313Z,69.30
2022-11-24T12:12:49.220Z,70.02
2022-11-24T12:15:54.569Z,70.69
2022-11-24T12:19:39.832Z,71.67
2022-11-24T12:22:51.693Z,74.58
2022-11-24T12:26:20.507Z,76.60
2022-11-24T12:29:57.647Z,78.74
2022-11-24T12:33:08.052Z,79.59
2022-11-24T12:36:30.826Z,79.23
2022-11-24T12:39:36.959Z,80.62
2022-11-24T12:43:11.203Z,80.35
2022-11-24T12:46:56.537Z,79.30
2022-11-24T12:50:05.595Z,78.54
2022-11-24T12:53:19.295Z,76.33
2022-11-24T12:56:35.700Z,75.86
2022-11-24T12:59:57.235Z,74.80
2022-11-24T13:03:11.637Z,77.11
2022-11-24T13:06:23.532Z,78.95
2022-11-24T13:09:26.444Z,80.12
2022-11-24T13:12:29.616Z,80.38
2022-11-24T13:16:13.073Z,80.79
2022-11-24T13:19:27.011Z,80.51
2022-11-24T13:22:30.157Z,81.44
2022-11-24T13:25:35.199Z,81.12
2022-11-24T13:29:03.648Z,81.25
2022-11-24T13:32:12.233Z,81.08
2022-11-24T13:35:16.137Z,81.81
2022-11-24T13:38:51.385Z,81.69
2022-11-24T13:41:54.676Z,81.75
2022-11-24T13:45:00.048Z,82.01
2022-11-24T13:48:02.933Z,81.92
2022-11-24T13:51:14.387Z,81.51
2022-11-24T13:54:17.442Z,81.36
2022-11-24T13:57:39.584Z,79.13
2022-11-24T14:01:30.464Z,74.89
2022-11-24T14:04:36.115Z,72.41
2022-11-24T14:07:41.814Z,71.58
2022-11-24T14:10:46.031Z,70.55
2022-11-24T14:13:48.888Z,70.63
2022-11-24T14:17:17.091Z,72.34
2022-11-24T14:20:25.534Z,72.65
2022-11-24T14:23:30.027Z,75.77
2022-11-24T14:26:35.677Z,78.93
2022-11-24T14:29:54.211Z,80.64
2022-11-24T14:32:58.914Z,82.81
2022-11-24T14:36:02.423Z,84.20
2022-11-24T14:39:06.093Z,84.90
2022-11-24T14:42:21.263Z,86.10
2022-11-24T14:45:24.450Z,87.41
2022-11-24T14:48:32.740Z,87.11
2022-11-24T14:51:43.384Z,88.80
2022-11-24T14:55:03.953Z,89.20
2022-11-24T14:58:42.358Z,89.58
2022-11-24T15:01:45.887Z,90.56
2022-11-24T15:05:06.858Z,90.40
2022-11-24T15:08:13.255Z,90.95
2022-11-24T15:11:16.254Z,91.05
2022-11-24T15:14:43.528Z,90.73
2022-11-24T15:17:51.811Z,91.30
2022-11-24T15:20:55.195Z,92.22
2022-11-24T15:24:18.130Z,92.39
2022-11-24T15:27:21.296Z,92.86
2022-11-24T15:30:27.679Z,93.57
2022-11-24T15:33:31.131Z,94.26
2022-11-24T15:36:34.101Z,94.60
2022-11-24T15:39:37.397Z,95.01
2022-11-24T15:42:40.721Z,95.75
2022-11-24T15:45:44.071Z,95.57
2022-11-24T15:48:47.346Z,96.25
2022-11-24T15:51:50.583Z,96.56
2022-11-24T15:54:54.695Z,97.03
2022-11-24T15:57:57.907Z,96.70
2022-11-24T16:01:01.395Z,96.91
2022-11-24T16:04:07.828Z,97.02
2022-11-24T16:07:14.203Z,96.94
2022-11-24T16:10:26.134Z,97.02
2022-11-24T16:13:29.156Z,97.69
2022-11-24T16:16:32.671Z,97.50
2022-11-24T16:19:40.313Z,97.65
2022-11-24T16:22:45.584Z,97.70
2022-11-24T16:25:48.462Z,97.57
2022-11-24T16:28:51.996Z,98.42
2022-11-24T16:31:55.133Z,98.81
2022-11-24T16:34:59.213Z,98.81
2022-11-24T16:38:04.629Z,98.84
2022-11-24T16:41:10.620Z,99.50
2022-11-24T16:44:13.478Z,99.65
2022-11-24T16:47:17.061Z,99.93
2022-11-24T16:50:19.798Z,100.00
2022-11-24T16:53:23.435Z,100.00
2022-11-24T16:56:27.303Z,100.00
2022-11-24T16:59:30.478Z,100.00
2022-11-24T17:02:37.593Z,99.79
2022-11-24T17:05:41.038Z,99.55
2022-11-24T17:08:45.436Z,100.00
2022-11-24T17:11:48.383Z,100.00
2022-11-24T17:15:16.487Z,99.69
2022-11-24T17:18:24.545Z,99.28
2022-11-24T17:21:28.880Z,99.42
2022-11-24T17:24:33.845Z,100.00
2022-11-24T17:27:38.664Z,100.00
2022-11-24T17:30:42.551Z,100.00
2022-11-24T17:33:46.232Z,100.00
2022-11-24T17:36:50.795Z,100.00
2022-11-24T17:40:20.284Z,100.00
2022-11-24T17:43:20.878Z,100.00
2022-11-24T17:46:28.208Z,100.00
2022-11-24T17:49:32.218Z,100.00
2022-11-24T17:52:35.155Z,100.00
2022-11-24T17:55:38.850Z,100.00
2022-11-24T17:58:43.291Z,100.00
2022-11-24T18:01:47.505Z,100.00
2022-11-24T18:04:51.312Z,100.00
2022-11-24T18:08:07.314Z,100.00
2022-11-24T18:11:14.863Z,100.00
2022-11-24T18:14:18.260Z,100.00
2022-11-24T18:17:21.909Z,100.00
2022-11-24T18:20:27.057Z,100.00
2022-11-24T18:23:31.959Z,100.00
2022-11-24T18:26:35.593Z,100.00
2022-11-24T18:29:39.475Z,100.00
2022-11-24T18:32:42.754Z,100.00
2022-11-24T18:36:04.613Z,100.00
2022-11-24T18:39:09.286Z,100.00
2022-11-24T18:42:12.760Z,100.00
2022-11-24T18:45:15.549Z,100.00
2022-11-24T18:48:19.676Z,100.00
2022-11-24T18:51:24.032Z,100.00
2022-11-24T18:54:28.340Z,100.00
2022-11-24T18:57:32.254Z,100.00
2022-11-24T19:00:36.066Z,100.00
2022-11-24T19:03:48.731Z,100.00
2022-11-24T19:06:53.193Z,100.00
2022-11-24T19:09:56.617Z,100.00
2022-11-24T19:13:00.294Z,100.00
2022-11-24T19:16:11.425Z,100.00
2022-11-24T19:19:15.204Z,100.00
2022-11-24T19:22:18.976Z,100.00
2022-11-24T19:25:22.864Z,100.00
2022-11-24T19:28:26.421Z,100.00
2022-11-24T19:31:30.184Z,100.00
2022-11-24T19:34:33.945Z,100.00
2022-11-24T19:37:37.589Z,100.00
2022-11-24T19:40:41.010Z,100.00
2022-11-24T19:43:47.073Z,100.00
2022-11-24T19:46:51.621Z,100.00
2022-11-24T19:49:56.885Z,100.00
2022-11-24T19:53:03.112Z,100.00
2022-11-24T19:56:19.158Z,100.00
2022-11-24T19:59:24.543Z,100.00
2022-11-24T20:02:29.964Z,100.00
2022-11-24T20:05:33.483Z,100.00
2022-11-24T20:08:37.542Z,100.00
2022-11-24T20:11:41.824Z,100.00
2022-11-24T20:14:44.836Z,100.00
2022-11-24T20:17:49.329Z,100.00
2022-11-24T20:20:56.542Z,100.00
2022-11-24T20:24:09.051Z,100.00
2022-11-24T20:27:13.684Z,100.00
2022-11-24T20:30:17.334Z,100.00
2022-11-24T20:33:21.297Z,100.00
2022-11-24T20:36:30.248Z,100.00
2022-11-24T20:39:33.702Z,100.00
2022-11-24T20:42:38.018Z,100.00
2022-11-24T20:45:41.530Z,100.00
2022-11-24T20:48:46.797Z,100.00
2022-11-24T20:51:50.563Z,100.00
2022-11-24T20:54:55.459Z,100.00
2022-11-24T20:57:58.815Z,100.00
2022-11-24T21:01:19.207Z,100.00
2022-11-24T21:04:24.449Z,100.00
2022-11-24T21:07:27.710Z,100.00
2022-11-24T21:10:30.848Z,100.00
2022-11-24T21:13:35.867Z,100.00
2022-11-24T21:16:41.027Z,100.00
2022-11-24T21:19:44.390Z,100.00
2022-11-24T21:22:47.293Z,100.00
2022-11-24T21:25:51.431Z,100.00
2022-11-24T21:28:54.508Z,100.00
2022-11-24T21:31:58.662Z,100.00
2022-11-24T21:35:03.702Z,100.00
2022-11-24T21:38:08.307Z,100.00
2022-11-24T21:41:12.129Z,100.00
2022-11-24T21:44:15.471Z,100.00
2022-11-24T21:47:18.352Z,100.00
2022-11-24T21:50:21.897Z,100.00
2022-11-24T21:53:25.328Z,100.00
2022-11-24T21:56:28.773Z,100.00
2022-11-24T21:59:31.662Z,100.00
2022-11-24T22:02:34.836Z,100.00
2022-11-24T22:05:38.052Z,100.00
2022-11-24T22:08:41.346Z,100.00
2022-11-24T22:11:44.908Z,100.00
2022-11-24T22:14:47.791Z,100.00
2022-11-24T22:17:52.145Z,100.00
2022-11-24T22:20:56.268Z,100.00
2022-11-24T22:24:00.392Z,100.00
2022-11-24T22:27:03.455Z,100.00
2022-11-24T22:30:07.769Z,100.00
2022-11-24T22:33:10.638Z,100.00
2022-11-24T22:36:14.865Z,100.00
2022-11-24T22:39:18.038Z,100.00
2022-11-24T22:42:21.552Z,100.00
2022-11-24T22:45:24.703Z,100.00
2022-11-24T22:48:27.893Z,100.00
2022-11-24T22:51:33.195Z,100.00
2022-11-24T22:54:36.971Z,100.00
2022-11-24T22:57:41.446Z,100.00
2022-11-24T23:00:46.101Z,100.00
2022-11-24T23:03:50.530Z,100.00
2022-11-24T23:06:55.298Z,100.00
2022-11-24T23:09:58.248Z,100.00
2022-11-24T23:13:02.363Z,100.00
2022-11-24T23:16:16.045Z,100.00
2022-11-24T23:19:19.693Z,100.00
2022-11-24T23:22:23.483Z,100.00
2022-11-24T23:25:28.529Z,100.00
2022-11-24T23:28:31.479Z,100.00
2022-11-24T23:31:40.142Z,100.00
2022-11-24T23:34:43.267Z,100.00
2022-11-24T23:38:07.171Z,100.00
2022-11-24T23:41:12.948Z,100.00
2022-11-24T23:44:16.152Z,100.00
2022-11-24T23:47:18.919Z,100.00
2022-11-24T23:50:22.105Z,100.00
2022-11-24T23:53:24.952Z,100.00
2022-11-24T23:56:32.666Z,100.00
2022-11-24T23:59:36.031Z,100.00
